sensor_id;sensor_type;location;lat;lon;timestamp;P1;durP1;ratioP1;P2;durP2;ratioP2
68765;SDS011;55756;45.582;11.484;2023-04-25T00:01:46;4.82;;;2.10;;
68765;SDS011;55756;45.582;11.484;2023-04-25T00:04:12;4.78;;;2.22;;
68765;SDS011;55756;45.582;11.484;2023-04-25T00:06:38;6.45;;;2.20;;
68765;SDS011;55756;45.582;11.484;2023-04-25T00:09:04;6.20;;;2.20;;
68765;SDS011;55756;45.582;11.484;2023-04-25T00:11:35;4.95;;;1.95;;
68765;SDS011;55756;45.582;11.484;2023-04-25T00:14:03;5.80;;;2.13;;
68765;SDS011;55756;45.582;11.484;2023-04-25T00:16:29;5.45;;;2.30;;
68765;SDS011;55756;45.582;11.484;2023-04-25T00:18:58;5.65;;;2.30;;
68765;SDS011;55756;45.582;11.484;2023-04-25T00:21:27;5.85;;;2.13;;
68765;SDS011;55756;45.582;11.484;2023-04-25T00:23:53;5.32;;;2.00;;
68765;SDS011;55756;45.582;11.484;2023-04-25T00:26:20;5.45;;;1.95;;
68765;SDS011;55756;45.582;11.484;2023-04-25T00:28:47;4.47;;;2.10;;
68765;SDS011;55756;45.582;11.484;2023-04-25T00:31:13;6.32;;;2.00;;
68765;SDS011;55756;45.582;11.484;2023-04-25T00:33:39;5.95;;;2.10;;
68765;SDS011;55756;45.582;11.484;2023-04-25T00:36:05;5.65;;;1.92;;
68765;SDS011;55756;45.582;11.484;2023-04-25T00:38:32;6.15;;;1.90;;
68765;SDS011;55756;45.582;11.484;2023-04-25T00:40:58;6.28;;;2.00;;
68765;SDS011;55756;45.582;11.484;2023-04-25T00:43:26;5.18;;;2.05;;
68765;SDS011;55756;45.582;11.484;2023-04-25T00:45:53;5.22;;;2.10;;
68765;SDS011;55756;45.582;11.484;2023-04-25T00:48:21;5.45;;;1.90;;
68765;SDS011;55756;45.582;11.484;2023-04-25T00:50:51;7.32;;;2.00;;
68765;SDS011;55756;45.582;11.484;2023-04-25T00:53:21;5.53;;;2.03;;
68765;SDS011;55756;45.582;11.484;2023-04-25T00:55:48;6.10;;;1.88;;
68765;SDS011;55756;45.582;11.484;2023-04-25T00:58:19;6.40;;;1.80;;
68765;SDS011;55756;45.582;11.484;2023-04-25T01:00:47;5.38;;;1.80;;
68765;SDS011;55756;45.582;11.484;2023-04-25T01:05:42;4.45;;;1.70;;
68765;SDS011;55756;45.582;11.484;2023-04-25T01:08:08;4.28;;;1.70;;
68765;SDS011;55756;45.582;11.484;2023-04-25T01:10:36;5.45;;;1.60;;
68765;SDS011;55756;45.582;11.484;2023-04-25T01:13:02;5.90;;;1.70;;
68765;SDS011;55756;45.582;11.484;2023-04-25T01:15:30;3.85;;;1.40;;
68765;SDS011;55756;45.582;11.484;2023-04-25T01:17:56;4.63;;;1.40;;
68765;SDS011;55756;45.582;11.484;2023-04-25T01:20:26;5.43;;;1.55;;
68765;SDS011;55756;45.582;11.484;2023-04-25T01:22:53;4.25;;;1.55;;
68765;SDS011;55756;45.582;11.484;2023-04-25T01:25:20;3.60;;;1.48;;
68765;SDS011;55756;45.582;11.484;2023-04-25T01:27:47;5.78;;;1.40;;
68765;SDS011;55756;45.582;11.484;2023-04-25T01:30:14;4.18;;;1.30;;
68765;SDS011;55756;45.582;11.484;2023-04-25T01:32:42;2.83;;;1.23;;
68765;SDS011;55756;45.582;11.484;2023-04-25T01:35:09;4.72;;;1.60;;
68765;SDS011;55756;45.582;11.484;2023-04-25T01:37:41;5.43;;;1.38;;
68765;SDS011;55756;45.582;11.484;2023-04-25T01:40:10;3.63;;;1.48;;
68765;SDS011;55756;45.582;11.484;2023-04-25T01:42:39;4.72;;;1.20;;
68765;SDS011;55756;45.582;11.484;2023-04-25T01:45:06;2.73;;;1.23;;
68765;SDS011;55756;45.582;11.484;2023-04-25T01:47:34;3.15;;;1.40;;
68765;SDS011;55756;45.582;11.484;2023-04-25T01:50:01;4.05;;;1.50;;
68765;SDS011;55756;45.582;11.484;2023-04-25T01:52:29;2.63;;;1.17;;
68765;SDS011;55756;45.582;11.484;2023-04-25T01:54:57;4.40;;;1.30;;
68765;SDS011;55756;45.582;11.484;2023-04-25T01:57:26;3.42;;;1.33;;
68765;SDS011;55756;45.582;11.484;2023-04-25T02:00:00;3.65;;;1.20;;
68765;SDS011;55756;45.582;11.484;2023-04-25T02:02:40;3.33;;;1.25;;
68765;SDS011;55756;45.582;11.484;2023-04-25T02:05:16;4.55;;;1.30;;
68765;SDS011;55756;45.582;11.484;2023-04-25T02:07:43;4.15;;;1.30;;
68765;SDS011;55756;45.582;11.484;2023-04-25T02:10:10;4.32;;;1.30;;
68765;SDS011;55756;45.582;11.484;2023-04-25T02:12:48;2.50;;;1.35;;
68765;SDS011;55756;45.582;11.484;2023-04-25T02:15:46;3.28;;;1.35;;
68765;SDS011;55756;45.582;11.484;2023-04-25T02:18:17;4.55;;;1.50;;
68765;SDS011;55756;45.582;11.484;2023-04-25T02:20:46;3.53;;;1.42;;
68765;SDS011;55756;45.582;11.484;2023-04-25T02:23:12;5.00;;;1.48;;
68765;SDS011;55756;45.582;11.484;2023-04-25T02:25:38;5.28;;;1.40;;
68765;SDS011;55756;45.582;11.484;2023-04-25T02:28:04;4.28;;;1.30;;
68765;SDS011;55756;45.582;11.484;2023-04-25T02:30:30;3.53;;;1.40;;
68765;SDS011;55756;45.582;11.484;2023-04-25T02:32:56;3.65;;;1.30;;
68765;SDS011;55756;45.582;11.484;2023-04-25T02:35:22;3.25;;;1.20;;
68765;SDS011;55756;45.582;11.484;2023-04-25T02:37:48;3.30;;;1.17;;
68765;SDS011;55756;45.582;11.484;2023-04-25T02:40:14;4.65;;;1.30;;
68765;SDS011;55756;45.582;11.484;2023-04-25T02:42:39;2.47;;;1.30;;
68765;SDS011;55756;45.582;11.484;2023-04-25T02:45:06;2.42;;;1.20;;
68765;SDS011;55756;45.582;11.484;2023-04-25T02:47:33;5.40;;;1.52;;
68765;SDS011;55756;45.582;11.484;2023-04-25T02:50:00;5.07;;;1.50;;
68765;SDS011;55756;45.582;11.484;2023-04-25T02:52:26;3.85;;;1.38;;
68765;SDS011;55756;45.582;11.484;2023-04-25T02:54:59;3.97;;;1.50;;
68765;SDS011;55756;45.582;11.484;2023-04-25T02:57:26;2.88;;;1.40;;
68765;SDS011;55756;45.582;11.484;2023-04-25T02:59:52;4.85;;;1.58;;
68765;SDS011;55756;45.582;11.484;2023-04-25T03:02:17;3.60;;;1.48;;
68765;SDS011;55756;45.582;11.484;2023-04-25T03:04:43;3.13;;;1.40;;
68765;SDS011;55756;45.582;11.484;2023-04-25T03:07:09;3.40;;;1.30;;
68765;SDS011;55756;45.582;11.484;2023-04-25T03:09:35;3.67;;;1.35;;
68765;SDS011;55756;45.582;11.484;2023-04-25T03:12:01;3.90;;;1.50;;
68765;SDS011;55756;45.582;11.484;2023-04-25T03:14:27;3.45;;;1.38;;
68765;SDS011;55756;45.582;11.484;2023-04-25T03:16:53;4.32;;;1.50;;
68765;SDS011;55756;45.582;11.484;2023-04-25T03:19:19;4.38;;;1.40;;
68765;SDS011;55756;45.582;11.484;2023-04-25T03:21:46;2.80;;;1.30;;
68765;SDS011;55756;45.582;11.484;2023-04-25T03:24:12;3.47;;;1.55;;
68765;SDS011;55756;45.582;11.484;2023-04-25T03:26:38;3.83;;;1.50;;
68765;SDS011;55756;45.582;11.484;2023-04-25T03:29:04;4.53;;;1.50;;
68765;SDS011;55756;45.582;11.484;2023-04-25T03:31:30;3.70;;;1.50;;
68765;SDS011;55756;45.582;11.484;2023-04-25T03:33:56;4.93;;;1.80;;
68765;SDS011;55756;45.582;11.484;2023-04-25T03:36:23;4.40;;;1.80;;
68765;SDS011;55756;45.582;11.484;2023-04-25T03:38:48;6.10;;;1.90;;
68765;SDS011;55756;45.582;11.484;2023-04-25T03:41:16;6.70;;;2.00;;
68765;SDS011;55756;45.582;11.484;2023-04-25T03:43:48;5.95;;;2.00;;
68765;SDS011;55756;45.582;11.484;2023-04-25T03:46:15;6.38;;;2.20;;
68765;SDS011;55756;45.582;11.484;2023-04-25T03:48:41;5.45;;;2.00;;
68765;SDS011;55756;45.582;11.484;2023-04-25T03:51:10;4.63;;;2.10;;
68765;SDS011;55756;45.582;11.484;2023-04-25T03:53:40;6.60;;;2.35;;
68765;SDS011;55756;45.582;11.484;2023-04-25T03:56:29;25.63;;;14.50;;
68765;SDS011;55756;45.582;11.484;2023-04-25T03:59:02;29.25;;;19.95;;
68765;SDS011;55756;45.582;11.484;2023-04-25T04:01:29;20.23;;;10.93;;
68765;SDS011;55756;45.582;11.484;2023-04-25T04:03:54;12.55;;;7.85;;
68765;SDS011;55756;45.582;11.484;2023-04-25T04:06:20;8.18;;;4.43;;
68765;SDS011;55756;45.582;11.484;2023-04-25T04:08:50;7.82;;;4.10;;
68765;SDS011;55756;45.582;11.484;2023-04-25T04:11:16;6.10;;;2.72;;
68765;SDS011;55756;45.582;11.484;2023-04-25T04:13:42;7.50;;;2.85;;
68765;SDS011;55756;45.582;11.484;2023-04-25T04:16:08;7.10;;;3.08;;
68765;SDS011;55756;45.582;11.484;2023-04-25T04:18:34;45.20;;;27.65;;
68765;SDS011;55756;45.582;11.484;2023-04-25T04:21:00;22.65;;;13.52;;
68765;SDS011;55756;45.582;11.484;2023-04-25T04:23:29;16.65;;;8.02;;
68765;SDS011;55756;45.582;11.484;2023-04-25T04:25:56;11.45;;;5.57;;
68765;SDS011;55756;45.582;11.484;2023-04-25T04:28:39;8.10;;;3.85;;
68765;SDS011;55756;45.582;11.484;2023-04-25T04:31:21;6.45;;;2.85;;
68765;SDS011;55756;45.582;11.484;2023-04-25T04:33:47;5.10;;;2.35;;
68765;SDS011;55756;45.582;11.484;2023-04-25T04:36:14;7.00;;;2.40;;
68765;SDS011;55756;45.582;11.484;2023-04-25T04:38:41;4.97;;;2.20;;
68765;SDS011;55756;45.582;11.484;2023-04-25T04:41:12;5.03;;;2.13;;
68765;SDS011;55756;45.582;11.484;2023-04-25T04:44:06;8.25;;;2.35;;
68765;SDS011;55756;45.582;11.484;2023-04-25T04:46:54;9.02;;;2.30;;
68765;SDS011;55756;45.582;11.484;2023-04-25T04:52:38;6.07;;;2.30;;
68765;SDS011;55756;45.582;11.484;2023-04-25T04:55:35;6.57;;;2.30;;
68765;SDS011;55756;45.582;11.484;2023-04-25T04:58:21;6.25;;;2.20;;
68765;SDS011;55756;45.582;11.484;2023-04-25T05:00:53;6.00;;;2.30;;
68765;SDS011;55756;45.582;11.484;2023-04-25T05:03:41;6.38;;;2.60;;
68765;SDS011;55756;45.582;11.484;2023-04-25T05:06:41;7.63;;;2.30;;
68765;SDS011;55756;45.582;11.484;2023-04-25T05:09:40;5.55;;;2.50;;
68765;SDS011;55756;45.582;11.484;2023-04-25T05:12:25;8.88;;;2.47;;
68765;SDS011;55756;45.582;11.484;2023-04-25T05:14:50;5.85;;;2.40;;
68765;SDS011;55756;45.582;11.484;2023-04-25T05:17:39;6.63;;;2.40;;
68765;SDS011;55756;45.582;11.484;2023-04-25T05:20:19;5.20;;;2.40;;
68765;SDS011;55756;45.582;11.484;2023-04-25T05:23:04;5.50;;;2.45;;
68765;SDS011;55756;45.582;11.484;2023-04-25T05:25:56;4.97;;;2.33;;
68765;SDS011;55756;45.582;11.484;2023-04-25T05:28:36;6.05;;;2.50;;
68765;SDS011;55756;45.582;11.484;2023-04-25T05:31:20;6.97;;;2.42;;
68765;SDS011;55756;45.582;11.484;2023-04-25T05:33:51;6.20;;;2.58;;
68765;SDS011;55756;45.582;11.484;2023-04-25T05:36:18;5.22;;;2.40;;
68765;SDS011;55756;45.582;11.484;2023-04-25T05:38:45;4.72;;;2.30;;
68765;SDS011;55756;45.582;11.484;2023-04-25T05:41:34;6.45;;;2.35;;
68765;SDS011;55756;45.582;11.484;2023-04-25T05:44:18;6.00;;;2.20;;
68765;SDS011;55756;45.582;11.484;2023-04-25T05:47:00;4.47;;;2.20;;
68765;SDS011;55756;45.582;11.484;2023-04-25T05:49:41;7.18;;;2.33;;
68765;SDS011;55756;45.582;11.484;2023-04-25T05:52:28;5.55;;;2.40;;
68765;SDS011;55756;45.582;11.484;2023-04-25T05:55:03;6.00;;;2.20;;
68765;SDS011;55756;45.582;11.484;2023-04-25T05:57:31;4.57;;;1.88;;
68765;SDS011;55756;45.582;11.484;2023-04-25T05:59:57;4.35;;;1.70;;
68765;SDS011;55756;45.582;11.484;2023-04-25T06:02:38;4.20;;;1.70;;
68765;SDS011;55756;45.582;11.484;2023-04-25T06:05:04;5.55;;;1.70;;
68765;SDS011;55756;45.582;11.484;2023-04-25T06:07:30;4.55;;;1.50;;
68765;SDS011;55756;45.582;11.484;2023-04-25T06:09:56;6.30;;;1.60;;
68765;SDS011;55756;45.582;11.484;2023-04-25T06:12:22;7.20;;;1.65;;
68765;SDS011;55756;45.582;11.484;2023-04-25T06:14:50;4.95;;;1.50;;
68765;SDS011;55756;45.582;11.484;2023-04-25T06:17:16;4.97;;;1.55;;
68765;SDS011;55756;45.582;11.484;2023-04-25T06:19:41;4.65;;;1.20;;
68765;SDS011;55756;45.582;11.484;2023-04-25T06:22:07;4.45;;;1.40;;
68765;SDS011;55756;45.582;11.484;2023-04-25T06:24:34;8.00;;;1.70;;
68765;SDS011;55756;45.582;11.484;2023-04-25T06:27:02;3.33;;;1.30;;
68765;SDS011;55756;45.582;11.484;2023-04-25T06:29:28;5.00;;;1.50;;
68765;SDS011;55756;45.582;11.484;2023-04-25T06:31:54;5.22;;;1.50;;
68765;SDS011;55756;45.582;11.484;2023-04-25T06:34:21;5.22;;;1.50;;
68765;SDS011;55756;45.582;11.484;2023-04-25T06:36:47;3.92;;;1.60;;
68765;SDS011;55756;45.582;11.484;2023-04-25T06:39:14;5.07;;;1.63;;
68765;SDS011;55756;45.582;11.484;2023-04-25T06:41:40;6.65;;;1.67;;
68765;SDS011;55756;45.582;11.484;2023-04-25T06:44:13;4.25;;;1.60;;
68765;SDS011;55756;45.582;11.484;2023-04-25T06:46:49;6.95;;;2.10;;
68765;SDS011;55756;45.582;11.484;2023-04-25T06:49:15;5.53;;;2.17;;
68765;SDS011;55756;45.582;11.484;2023-04-25T06:51:41;6.00;;;1.83;;
68765;SDS011;55756;45.582;11.484;2023-04-25T06:54:07;5.75;;;1.60;;
68765;SDS011;55756;45.582;11.484;2023-04-25T06:56:40;6.40;;;1.60;;
68765;SDS011;55756;45.582;11.484;2023-04-25T06:59:10;8.10;;;1.58;;
68765;SDS011;55756;45.582;11.484;2023-04-25T07:01:38;4.40;;;1.48;;
68765;SDS011;55756;45.582;11.484;2023-04-25T07:04:10;3.90;;;1.50;;
68765;SDS011;55756;45.582;11.484;2023-04-25T07:06:41;5.25;;;1.80;;
68765;SDS011;55756;45.582;11.484;2023-04-25T07:09:08;4.63;;;1.80;;
68765;SDS011;55756;45.582;11.484;2023-04-25T07:11:38;6.25;;;1.77;;
68765;SDS011;55756;45.582;11.484;2023-04-25T07:14:04;4.63;;;1.70;;
68765;SDS011;55756;45.582;11.484;2023-04-25T07:16:30;4.57;;;1.50;;
68765;SDS011;55756;45.582;11.484;2023-04-25T07:18:58;6.63;;;1.90;;
68765;SDS011;55756;45.582;11.484;2023-04-25T07:21:25;8.07;;;1.90;;
68765;SDS011;55756;45.582;11.484;2023-04-25T07:23:52;5.22;;;1.70;;
68765;SDS011;55756;45.582;11.484;2023-04-25T07:26:23;5.72;;;1.42;;
68765;SDS011;55756;45.582;11.484;2023-04-25T07:29:07;3.83;;;1.60;;
68765;SDS011;55756;45.582;11.484;2023-04-25T07:31:33;5.97;;;2.00;;
68765;SDS011;55756;45.582;11.484;2023-04-25T07:34:00;4.45;;;1.50;;
68765;SDS011;55756;45.582;11.484;2023-04-25T07:36:26;4.47;;;1.30;;
68765;SDS011;55756;45.582;11.484;2023-04-25T07:38:52;4.55;;;1.30;;
68765;SDS011;55756;45.582;11.484;2023-04-25T07:41:18;5.40;;;1.50;;
68765;SDS011;55756;45.582;11.484;2023-04-25T07:43:44;4.40;;;1.50;;
68765;SDS011;55756;45.582;11.484;2023-04-25T07:46:10;3.60;;;1.30;;
68765;SDS011;55756;45.582;11.484;2023-04-25T07:48:37;3.40;;;1.40;;
68765;SDS011;55756;45.582;11.484;2023-04-25T07:51:03;4.68;;;1.60;;
68765;SDS011;55756;45.582;11.484;2023-04-25T07:53:30;4.53;;;1.50;;
68765;SDS011;55756;45.582;11.484;2023-04-25T07:56:02;3.88;;;1.40;;
68765;SDS011;55756;45.582;11.484;2023-04-25T07:58:31;3.97;;;1.42;;
68765;SDS011;55756;45.582;11.484;2023-04-25T08:01:00;5.88;;;1.60;;
68765;SDS011;55756;45.582;11.484;2023-04-25T08:03:58;4.45;;;1.55;;
68765;SDS011;55756;45.582;11.484;2023-04-25T08:06:42;5.80;;;1.55;;
68765;SDS011;55756;45.582;11.484;2023-04-25T08:09:13;5.22;;;1.60;;
68765;SDS011;55756;45.582;11.484;2023-04-25T08:11:41;8.73;;;2.00;;
68765;SDS011;55756;45.582;11.484;2023-04-25T08:14:10;4.30;;;1.60;;
68765;SDS011;55756;45.582;11.484;2023-04-25T08:16:37;4.00;;;1.60;;
68765;SDS011;55756;45.582;11.484;2023-04-25T08:19:04;3.83;;;1.48;;
68765;SDS011;55756;45.582;11.484;2023-04-25T08:21:30;5.03;;;1.60;;
68765;SDS011;55756;45.582;11.484;2023-04-25T08:24:00;3.67;;;1.42;;
68765;SDS011;55756;45.582;11.484;2023-04-25T08:26:30;3.72;;;1.30;;
68765;SDS011;55756;45.582;11.484;2023-04-25T08:28:57;3.97;;;1.88;;
68765;SDS011;55756;45.582;11.484;2023-04-25T08:31:23;7.22;;;3.03;;
68765;SDS011;55756;45.582;11.484;2023-04-25T08:33:58;7.30;;;3.55;;
68765;SDS011;55756;45.582;11.484;2023-04-25T08:36:32;12.45;;;6.72;;
68765;SDS011;55756;45.582;11.484;2023-04-25T08:38:59;7.05;;;2.65;;
68765;SDS011;55756;45.582;11.484;2023-04-25T08:41:25;6.72;;;2.20;;
68765;SDS011;55756;45.582;11.484;2023-04-25T08:43:51;9.50;;;2.20;;
68765;SDS011;55756;45.582;11.484;2023-04-25T08:46:20;5.20;;;2.10;;
68765;SDS011;55756;45.582;11.484;2023-04-25T08:49:18;4.72;;;1.90;;
68765;SDS011;55756;45.582;11.484;2023-04-25T08:51:45;6.45;;;2.10;;
68765;SDS011;55756;45.582;11.484;2023-04-25T08:54:14;3.83;;;1.80;;
68765;SDS011;55756;45.582;11.484;2023-04-25T08:56:40;6.35;;;2.60;;
68765;SDS011;55756;45.582;11.484;2023-04-25T08:59:09;5.97;;;2.08;;
68765;SDS011;55756;45.582;11.484;2023-04-25T09:01:37;5.80;;;2.37;;
68765;SDS011;55756;45.582;11.484;2023-04-25T09:04:03;7.88;;;2.05;;
68765;SDS011;55756;45.582;11.484;2023-04-25T09:06:29;4.63;;;1.52;;
68765;SDS011;55756;45.582;11.484;2023-04-25T09:09:03;7.18;;;2.63;;
68765;SDS011;55756;45.582;11.484;2023-04-25T09:11:30;9.55;;;4.05;;
68765;SDS011;55756;45.582;11.484;2023-04-25T09:17:20;6.28;;;3.25;;
68765;SDS011;55756;45.582;11.484;2023-04-25T09:19:50;4.18;;;1.60;;
68765;SDS011;55756;45.582;11.484;2023-04-25T09:22:26;2.42;;;1.10;;
68765;SDS011;55756;45.582;11.484;2023-04-25T09:24:52;3.15;;;1.20;;
68765;SDS011;55756;45.582;11.484;2023-04-25T09:27:21;3.80;;;1.50;;
68765;SDS011;55756;45.582;11.484;2023-04-25T09:30:12;4.15;;;1.60;;
68765;SDS011;55756;45.582;11.484;2023-04-25T09:33:10;3.30;;;1.40;;
68765;SDS011;55756;45.582;11.484;2023-04-25T09:38:13;6.40;;;1.80;;
68765;SDS011;55756;45.582;11.484;2023-04-25T09:41:12;1.92;;;1.00;;
68765;SDS011;55756;45.582;11.484;2023-04-25T09:43:44;2.03;;;0.80;;
68765;SDS011;55756;45.582;11.484;2023-04-25T09:46:12;2.83;;;1.00;;
68765;SDS011;55756;45.582;11.484;2023-04-25T09:48:48;1.75;;;1.00;;
68765;SDS011;55756;45.582;11.484;2023-04-25T09:51:17;10.27;;;4.00;;
68765;SDS011;55756;45.582;11.484;2023-04-25T09:53:45;8.15;;;2.80;;
68765;SDS011;55756;45.582;11.484;2023-04-25T09:56:35;3.95;;;1.52;;
68765;SDS011;55756;45.582;11.484;2023-04-25T09:59:06;4.30;;;1.38;;
68765;SDS011;55756;45.582;11.484;2023-04-25T10:01:35;1.65;;;1.00;;
68765;SDS011;55756;45.582;11.484;2023-04-25T10:04:12;1.80;;;0.95;;
68765;SDS011;55756;45.582;11.484;2023-04-25T10:06:59;1.97;;;1.10;;
68765;SDS011;55756;45.582;11.484;2023-04-25T10:09:28;3.38;;;1.08;;
68765;SDS011;55756;45.582;11.484;2023-04-25T10:11:58;2.15;;;1.10;;
68765;SDS011;55756;45.582;11.484;2023-04-25T10:14:25;5.10;;;2.05;;
68765;SDS011;55756;45.582;11.484;2023-04-25T10:16:52;3.40;;;1.52;;
68765;SDS011;55756;45.582;11.484;2023-04-25T10:19:22;2.97;;;1.52;;
68765;SDS011;55756;45.582;11.484;2023-04-25T10:21:54;2.63;;;1.20;;
68765;SDS011;55756;45.582;11.484;2023-04-25T10:24:36;4.78;;;1.30;;
68765;SDS011;55756;45.582;11.484;2023-04-25T10:27:04;2.78;;;1.30;;
68765;SDS011;55756;45.582;11.484;2023-04-25T10:29:31;3.60;;;1.40;;
68765;SDS011;55756;45.582;11.484;2023-04-25T10:31:57;3.72;;;1.50;;
68765;SDS011;55756;45.582;11.484;2023-04-25T10:34:24;3.85;;;1.50;;
68765;SDS011;55756;45.582;11.484;2023-04-25T10:37:03;3.45;;;1.30;;
68765;SDS011;55756;45.582;11.484;2023-04-25T10:39:28;2.40;;;1.35;;
68765;SDS011;55756;45.582;11.484;2023-04-25T10:41:58;3.03;;;1.30;;
68765;SDS011;55756;45.582;11.484;2023-04-25T10:44:27;2.70;;;1.38;;
68765;SDS011;55756;45.582;11.484;2023-04-25T10:46:57;3.22;;;1.63;;
68765;SDS011;55756;45.582;11.484;2023-04-25T10:49:28;3.30;;;1.40;;
68765;SDS011;55756;45.582;11.484;2023-04-25T10:52:15;2.40;;;1.30;;
68765;SDS011;55756;45.582;11.484;2023-04-25T10:54:41;4.85;;;1.42;;
68765;SDS011;55756;45.582;11.484;2023-04-25T10:57:53;3.47;;;1.30;;
68765;SDS011;55756;45.582;11.484;2023-04-25T11:00:12;4.32;;;1.38;;
68765;SDS011;55756;45.582;11.484;2023-04-25T11:02:41;2.03;;;1.17;;
68765;SDS011;55756;45.582;11.484;2023-04-25T11:05:10;3.85;;;1.33;;
68765;SDS011;55756;45.582;11.484;2023-04-25T11:07:47;3.85;;;1.50;;
68765;SDS011;55756;45.582;11.484;2023-04-25T11:10:16;5.00;;;1.40;;
68765;SDS011;55756;45.582;11.484;2023-04-25T11:12:44;2.25;;;1.20;;
68765;SDS011;55756;45.582;11.484;2023-04-25T11:15:10;5.30;;;1.30;;
68765;SDS011;55756;45.582;11.484;2023-04-25T11:17:36;1.73;;;1.10;;
68765;SDS011;55756;45.582;11.484;2023-04-25T11:20:02;2.67;;;1.27;;
68765;SDS011;55756;45.582;11.484;2023-04-25T11:22:32;3.15;;;1.30;;
68765;SDS011;55756;45.582;11.484;2023-04-25T11:25:03;3.25;;;1.20;;
68765;SDS011;55756;45.582;11.484;2023-04-25T11:27:31;2.40;;;1.30;;
68765;SDS011;55756;45.582;11.484;2023-04-25T11:29:57;2.95;;;1.10;;
68765;SDS011;55756;45.582;11.484;2023-04-25T11:32:23;2.47;;;1.10;;
68765;SDS011;55756;45.582;11.484;2023-04-25T11:34:49;2.15;;;1.02;;
68765;SDS011;55756;45.582;11.484;2023-04-25T11:37:15;2.05;;;1.00;;
68765;SDS011;55756;45.582;11.484;2023-04-25T11:39:44;3.05;;;0.90;;
68765;SDS011;55756;45.582;11.484;2023-04-25T11:42:13;3.10;;;1.10;;
68765;SDS011;55756;45.582;11.484;2023-04-25T11:44:39;2.80;;;1.10;;
68765;SDS011;55756;45.582;11.484;2023-04-25T11:47:05;2.50;;;1.20;;
68765;SDS011;55756;45.582;11.484;2023-04-25T11:49:31;1.70;;;1.17;;
68765;SDS011;55756;45.582;11.484;2023-04-25T11:51:57;2.65;;;1.30;;
68765;SDS011;55756;45.582;11.484;2023-04-25T11:54:23;4.47;;;1.40;;
68765;SDS011;55756;45.582;11.484;2023-04-25T11:56:49;3.63;;;1.40;;
68765;SDS011;55756;45.582;11.484;2023-04-25T11:59:15;3.22;;;1.30;;
68765;SDS011;55756;45.582;11.484;2023-04-25T12:01:47;2.60;;;1.20;;
68765;SDS011;55756;45.582;11.484;2023-04-25T12:06:44;2.97;;;1.20;;
68765;SDS011;55756;45.582;11.484;2023-04-25T12:09:14;3.85;;;1.30;;
68765;SDS011;55756;45.582;11.484;2023-04-25T12:14:21;2.53;;;1.17;;
68765;SDS011;55756;45.582;11.484;2023-04-25T12:16:52;2.95;;;1.20;;
68765;SDS011;55756;45.582;11.484;2023-04-25T12:19:20;2.45;;;1.10;;
68765;SDS011;55756;45.582;11.484;2023-04-25T12:27:14;2.38;;;0.90;;
68765;SDS011;55756;45.582;11.484;2023-04-25T12:38:01;1.92;;;1.10;;
68765;SDS011;55756;45.582;11.484;2023-04-25T12:40:36;2.72;;;1.00;;
68765;SDS011;55756;45.582;11.484;2023-04-25T12:43:33;1.70;;;0.90;;
68765;SDS011;55756;45.582;11.484;2023-04-25T12:46:03;2.13;;;0.90;;
68765;SDS011;55756;45.582;11.484;2023-04-25T12:48:43;1.90;;;0.90;;
68765;SDS011;55756;45.582;11.484;2023-04-25T12:51:19;1.65;;;1.02;;
68765;SDS011;55756;45.582;11.484;2023-04-25T12:53:45;2.33;;;1.05;;
68765;SDS011;55756;45.582;11.484;2023-04-25T12:56:16;1.98;;;0.90;;
68765;SDS011;55756;45.582;11.484;2023-04-25T12:58:41;2.55;;;1.10;;
68765;SDS011;55756;45.582;11.484;2023-04-25T13:01:09;3.13;;;1.10;;
68765;SDS011;55756;45.582;11.484;2023-04-25T13:03:35;2.10;;;1.08;;
68765;SDS011;55756;45.582;11.484;2023-04-25T13:06:00;1.75;;;1.00;;
68765;SDS011;55756;45.582;11.484;2023-04-25T13:08:26;1.90;;;1.10;;
68765;SDS011;55756;45.582;11.484;2023-04-25T13:10:52;2.03;;;1.00;;
68765;SDS011;55756;45.582;11.484;2023-04-25T13:13:24;2.30;;;1.00;;
68765;SDS011;55756;45.582;11.484;2023-04-25T13:15:52;3.67;;;1.10;;
68765;SDS011;55756;45.582;11.484;2023-04-25T13:18:18;2.03;;;0.90;;
68765;SDS011;55756;45.582;11.484;2023-04-25T13:21:14;1.70;;;1.00;;
68765;SDS011;55756;45.582;11.484;2023-04-25T13:23:40;2.90;;;1.10;;
68765;SDS011;55756;45.582;11.484;2023-04-25T13:26:07;3.78;;;1.20;;
68765;SDS011;55756;45.582;11.484;2023-04-25T13:28:33;2.17;;;1.10;;
68765;SDS011;55756;45.582;11.484;2023-04-25T13:30:59;2.80;;;1.20;;
68765;SDS011;55756;45.582;11.484;2023-04-25T13:33:25;3.40;;;1.30;;
68765;SDS011;55756;45.582;11.484;2023-04-25T13:35:51;3.45;;;1.50;;
68765;SDS011;55756;45.582;11.484;2023-04-25T13:38:20;4.53;;;1.58;;
68765;SDS011;55756;45.582;11.484;2023-04-25T13:40:47;4.60;;;1.67;;
68765;SDS011;55756;45.582;11.484;2023-04-25T13:43:13;3.63;;;1.50;;
68765;SDS011;55756;45.582;11.484;2023-04-25T13:45:39;2.92;;;1.38;;
68765;SDS011;55756;45.582;11.484;2023-04-25T13:48:05;3.22;;;1.40;;
68765;SDS011;55756;45.582;11.484;2023-04-25T13:50:31;5.65;;;1.52;;
68765;SDS011;55756;45.582;11.484;2023-04-25T13:52:57;4.07;;;1.48;;
68765;SDS011;55756;45.582;11.484;2023-04-25T13:55:23;5.45;;;1.63;;
68765;SDS011;55756;45.582;11.484;2023-04-25T13:57:48;3.63;;;1.65;;
68765;SDS011;55756;45.582;11.484;2023-04-25T14:00:14;6.03;;;1.58;;
68765;SDS011;55756;45.582;11.484;2023-04-25T14:02:40;4.45;;;1.50;;
68765;SDS011;55756;45.582;11.484;2023-04-25T14:05:06;4.65;;;1.50;;
68765;SDS011;55756;45.582;11.484;2023-04-25T14:07:36;4.05;;;1.60;;
68765;SDS011;55756;45.582;11.484;2023-04-25T14:10:02;4.97;;;1.65;;
68765;SDS011;55756;45.582;11.484;2023-04-25T14:12:29;5.53;;;1.77;;
68765;SDS011;55756;45.582;11.484;2023-04-25T14:14:55;3.83;;;1.70;;
68765;SDS011;55756;45.582;11.484;2023-04-25T14:17:21;4.43;;;1.50;;
68765;SDS011;55756;45.582;11.484;2023-04-25T14:19:46;3.90;;;1.50;;
68765;SDS011;55756;45.582;11.484;2023-04-25T14:22:13;2.95;;;1.50;;
68765;SDS011;55756;45.582;11.484;2023-04-25T14:24:42;4.68;;;1.40;;
68765;SDS011;55756;45.582;11.484;2023-04-25T14:27:08;4.28;;;1.38;;
68765;SDS011;55756;45.582;11.484;2023-04-25T14:29:34;3.33;;;1.40;;
68765;SDS011;55756;45.582;11.484;2023-04-25T14:32:00;3.65;;;1.30;;
68765;SDS011;55756;45.582;11.484;2023-04-25T14:34:27;4.45;;;1.40;;
68765;SDS011;55756;45.582;11.484;2023-04-25T14:36:52;3.30;;;1.48;;
68765;SDS011;55756;45.582;11.484;2023-04-25T14:39:18;4.38;;;1.77;;
68765;SDS011;55756;45.582;11.484;2023-04-25T14:41:44;4.22;;;1.90;;
68765;SDS011;55756;45.582;11.484;2023-04-25T14:44:10;4.38;;;1.60;;
68765;SDS011;55756;45.582;11.484;2023-04-25T14:46:36;5.32;;;1.80;;
68765;SDS011;55756;45.582;11.484;2023-04-25T14:49:02;4.63;;;1.80;;
68765;SDS011;55756;45.582;11.484;2023-04-25T14:51:28;3.13;;;1.42;;
68765;SDS011;55756;45.582;11.484;2023-04-25T14:53:54;3.70;;;1.50;;
68765;SDS011;55756;45.582;11.484;2023-04-25T14:56:20;4.75;;;1.55;;
68765;SDS011;55756;45.582;11.484;2023-04-25T14:58:46;3.72;;;1.40;;
68765;SDS011;55756;45.582;11.484;2023-04-25T15:01:12;3.25;;;1.40;;
68765;SDS011;55756;45.582;11.484;2023-04-25T15:03:39;5.13;;;2.10;;
68765;SDS011;55756;45.582;11.484;2023-04-25T15:06:05;4.22;;;1.90;;
68765;SDS011;55756;45.582;11.484;2023-04-25T15:08:31;4.00;;;1.75;;
68765;SDS011;55756;45.582;11.484;2023-04-25T15:10:58;2.33;;;1.33;;
68765;SDS011;55756;45.582;11.484;2023-04-25T15:13:24;2.67;;;1.30;;
68765;SDS011;55756;45.582;11.484;2023-04-25T15:15:50;5.50;;;2.33;;
68765;SDS011;55756;45.582;11.484;2023-04-25T15:18:20;2.63;;;1.40;;
68765;SDS011;55756;45.582;11.484;2023-04-25T15:20:53;3.53;;;1.38;;